Time;durP1;ratioP1;P1;durP2;ratioP2;P2;SDS_P1;SDS_P2;PMS_P1;PMS_P2;Temp;Humidity;BMP_temperature;BMP_pressure;BME280_temperature;BME280_humidity;BME280_pressure;Samples;Min_cycle;Max_cycle;Signal;HPM_P1;HPM_P2
2021/03/31 00:00:22;;;;;;;2.93;1.30;;;;;;;11.38;71.93;101201.72;5090630;28;20200;-69
2021/03/31 00:02:51;;;;;;;6.03;1.67;;;;;;;11.37;71.64;101196.44;5088990;28;20214;-69
2021/03/31 00:05:19;;;;;;;3.20;1.50;;;;;;;11.30;72.33;101200.44;5086963;28;20293;-68
2021/03/31 00:07:47;;;;;;;9.90;1.70;;;;;;;11.30;72.30;101205.84;5091100;28;20200;-69
2021/03/31 00:10:20;;;;;;;4.03;1.50;;;;;;;11.30;72.21;101206.69;5087974;28;20258;-69
2021/03/31 00:12:48;;;;;;;8.80;1.60;;;;;;;11.27;71.93;101182.69;5089551;28;20210;-69
2021/03/31 00:15:16;;;;;;;2.87;1.30;;;;;;;11.30;72.12;101198.63;5091947;28;20587;-69
2021/03/31 00:17:43;;;;;;;4.90;1.57;;;;;;;11.25;71.95;101198.06;5087459;28;20192;-68
2021/03/31 00:20:13;;;;;;;1.53;1.40;;;;;;;11.32;71.64;101193.16;5089363;28;20292;-68
2021/03/31 00:22:40;;;;;;;5.13;1.43;;;;;;;11.37;71.87;101193.75;5089284;28;20659;-68
2021/03/31 00:25:11;;;;;;;3.47;1.80;;;;;;;11.28;72.20;101184.41;5088853;28;20240;-68
2021/03/31 00:27:39;;;;;;;12.00;2.17;;;;;;;11.36;71.85;101195.56;5091240;28;20613;-68
2021/03/31 00:30:07;;;;;;;2.30;1.30;;;;;;;11.33;71.36;101195.78;5089516;28;20223;-68
2021/03/31 00:32:35;;;;;;;4.60;1.50;;;;;;;11.31;71.53;101197.66;5090047;28;20193;-68
2021/03/31 00:35:05;;;;;;;179.63;127.40;;;;;;;11.35;71.54;101193.84;5091307;28;20196;-68
2021/03/31 00:37:33;;;;;;;29.83;14.47;;;;;;;11.37;71.58;101193.75;5088932;28;20310;-68
2021/03/31 00:40:00;;;;;;;21.47;9.73;;;;;;;11.41;71.12;101201.50;5091898;28;20220;-68
2021/03/31 00:42:29;;;;;;;16.10;5.97;;;;;;;11.24;71.52;101163.22;5085113;28;20200;-68
2021/03/31 00:44:56;;;;;;;9.60;3.50;;;;;;;11.51;71.21;101194.56;5091590;28;20279;-68
2021/03/31 00:47:23;;;;;;;6.23;2.47;;;;;;;11.55;71.46;101189.00;5090456;28;20635;-68
2021/03/31 00:49:50;;;;;;;7.33;1.80;;;;;;;11.43;71.02;101169.16;5091698;28;20531;-68
2021/03/31 00:52:17;;;;;;;4.67;2.00;;;;;;;11.53;71.10;101183.72;5087298;28;20203;-69
2021/03/31 00:54:45;;;;;;;2.63;1.70;;;;;;;11.57;70.70;101173.63;5089284;28;20197;-68
2021/03/31 00:57:13;;;;;;;6.60;2.07;;;;;;;11.60;70.43;101181.47;5086994;28;20264;-68
2021/03/31 00:59:41;;;;;;;5.83;3.63;;;;;;;11.55;70.79;101176.41;5091022;28;20590;-70
2021/03/31 01:02:08;;;;;;;2.97;1.50;;;;;;;11.60;70.73;101171.59;5083970;28;20616;-70
2021/03/31 01:04:35;;;;;;;9.20;5.13;;;;;;;11.69;70.38;101164.75;5086120;28;20205;-69
2021/03/31 01:07:05;;;;;;;5.20;2.13;;;;;;;11.58;70.35;101148.44;5090205;28;20281;-70
2021/03/31 01:09:32;;;;;;;6.40;2.67;;;;;;;11.64;70.27;101150.75;5089881;28;20291;-70
2021/03/31 01:12:10;;;;;;;3.80;1.83;;;;;;;11.65;70.13;101164.09;5088066;28;20197;-70
2021/03/31 01:14:56;;;;;;;7.80;2.10;;;;;;;11.66;70.07;101160.44;5085830;28;20231;-70
2021/03/31 01:17:30;;;;;;;7.27;5.20;;;;;;;11.60;70.21;101159.97;5088924;28;20771;-69
2021/03/31 01:20:27;;;;;;;8.57;1.70;;;;;;;11.63;69.95;101162.44;5085370;28;20204;-70
2021/03/31 01:23:22;;;;;;;14.13;1.90;;;;;;;11.60;70.35;101154.59;5087559;28;20224;-68
2021/03/31 01:25:55;;;;;;;6.77;1.67;;;;;;;11.55;69.99;101159.41;5087243;28;20671;-68
2021/03/31 01:28:44;;;;;;;5.23;1.03;;;;;;;11.50;70.51;101149.81;5086953;28;20205;-68
2021/03/31 01:31:32;;;;;;;5.97;1.57;;;;;;;11.43;70.51;101170.00;5088224;28;20525;-68
2021/03/31 01:34:29;;;;;;;4.13;1.63;;;;;;;11.44;70.91;101171.75;5086983;28;20562;-68
2021/03/31 01:36:57;;;;;;;6.27;1.63;;;;;;;11.42;70.47;101162.03;5084849;28;20752;-68
2021/03/31 01:39:25;;;;;;;1.97;1.37;;;;;;;11.41;70.56;101163.88;5086327;28;20293;-68
2021/03/31 01:41:55;;;;;;;4.63;1.63;;;;;;;11.39;70.54;101163.09;5087199;28;20209;-68
2021/03/31 01:44:23;;;;;;;8.33;1.70;;;;;;;11.39;70.56;101167.63;5085296;28;20195;-70
2021/03/31 01:46:54;;;;;;;4.10;1.50;;;;;;;11.44;nan;101166.34;5087475;28;20212;-68
2021/03/31 01:49:25;;;;;;;3.53;1.57;;;;;;;11.42;70.45;101151.28;5088106;28;20668;-68
2021/03/31 01:51:56;;;;;;;3.87;1.60;;;;;;;11.41;70.81;101165.69;5087070;28;20285;-68
2021/03/31 01:54:23;;;;;;;5.80;1.60;;;;;;;11.24;70.30;101142.56;5087038;28;20194;-68
2021/03/31 01:56:52;;;;;;;7.87;1.77;;;;;;;11.42;70.26;101168.28;5086662;28;20206;-68
2021/03/31 01:59:21;;;;;;;2.93;1.57;;;;;;;11.44;70.34;101176.25;5088012;28;20283;-69
2021/03/31 02:01:51;;;;;;;5.57;1.80;;;;;;;11.38;70.85;101172.13;5084746;28;20473;-68
2021/03/31 02:04:19;;;;;;;3.53;1.67;;;;;;;11.38;70.52;101158.69;5086519;28;20283;-68
2021/03/31 02:06:49;;;;;;;3.57;1.70;;;;;;;11.45;70.20;101172.59;5081721;28;20295;-68
2021/03/31 02:09:17;;;;;;;4.90;1.30;;;;;;;11.52;70.03;101173.91;5084855;28;20526;-68
2021/03/31 02:11:45;;;;;;;2.27;1.40;;;;;;;11.33;70.33;101152.75;5090311;28;20280;-68
2021/03/31 02:14:14;;;;;;;6.00;1.27;;;;;;;11.54;70.33;101174.69;5083678;28;20192;-68
2021/03/31 02:16:43;;;;;;;4.40;1.53;;;;;;;11.46;70.32;101180.56;5087826;28;20239;-68
2021/03/31 02:19:13;;;;;;;3.53;1.00;;;;;;;11.43;70.04;101164.63;5086580;28;20201;-68
2021/03/31 02:21:41;;;;;;;3.83;1.60;;;;;;;11.51;70.48;101186.50;5088298;28;20577;-68
2021/03/31 02:24:14;;;;;;;4.77;1.63;;;;;;;11.51;70.32;101185.66;5087132;28;20232;-68
2021/03/31 02:26:41;;;;;;;7.00;1.73;;;;;;;11.52;69.80;101185.53;5090160;28;20204;-68
2021/03/31 02:29:10;;;;;;;1.97;1.10;;;;;;;11.46;70.66;101185.94;5087592;28;20204;-69
2021/03/31 02:31:38;;;;;;;3.20;1.50;;;;;;;11.48;70.41;101189.41;5089426;28;20643;-68
2021/03/31 02:34:06;;;;;;;3.90;1.10;;;;;;;11.51;70.35;101189.19;5087213;28;20578;-69
2021/03/31 02:36:39;;;;;;;7.93;1.53;;;;;;;11.51;70.04;101182.97;5083909;28;20717;-69
2021/03/31 02:39:09;;;;;;;2.63;1.23;;;;;;;11.49;70.08;101185.75;5085658;28;20202;-70
2021/03/31 02:41:40;;;;;;;1.57;1.10;;;;;;;11.56;70.37;101179.97;5088482;28;20227;-70
2021/03/31 02:44:09;;;;;;;3.00;1.17;;;;;;;11.52;70.43;101169.41;5087093;28;20232;-70
2021/03/31 02:46:39;;;;;;;3.57;1.30;;;;;;;11.56;69.99;101171.91;5087909;28;20197;-70
2021/03/31 02:49:08;;;;;;;3.37;1.30;;;;;;;11.51;70.45;101161.44;5090155;28;20188;-70
2021/03/31 02:51:37;;;;;;;1.07;0.80;;;;;;;11.54;69.80;101165.75;5089337;28;20202;-70
2021/03/31 02:54:09;;;;;;;3.53;1.47;;;;;;;11.55;69.77;101157.59;5088154;28;20206;-70
2021/03/31 02:56:39;;;;;;;1.23;1.13;;;;;;;11.59;69.82;101156.41;5083648;28;20213;-71
2021/03/31 02:59:07;;;;;;;246.03;145.27;;;;;;;11.58;69.64;101169.97;5084267;28;20265;-71
2021/03/31 03:01:34;;;;;;;20.13;9.30;;;;;;;11.45;70.42;101138.50;5080744;28;20311;-71
2021/03/31 03:04:04;;;;;;;4.40;2.30;;;;;;;11.52;70.50;101157.78;5085912;28;20209;-71
2021/03/31 03:06:32;;;;;;;29.43;19.53;;;;;;;11.59;70.31;101152.84;5083080;28;20235;-71
2021/03/31 03:09:04;;;;;;;3.70;3.00;;;;;;;11.64;69.95;101166.91;5077367;28;20224;-71
2021/03/31 03:11:32;;;;;;;5.43;2.53;;;;;;;11.63;69.88;101167.84;5083013;28;20217;-70
2021/03/31 03:14:01;;;;;;;2.80;1.50;;;;;;;11.64;69.68;101153.44;5080948;28;20288;-69
2021/03/31 03:16:29;;;;;;;6.20;3.33;;;;;;;11.60;69.81;101151.91;5078752;28;20220;-69
2021/03/31 03:18:58;;;;;;;3.97;1.80;;;;;;;11.55;69.82;101145.97;5084970;28;20199;-69
2021/03/31 03:21:27;;;;;;;13.40;10.63;;;;;;;11.69;69.45;101154.00;5086601;28;20206;-69
2021/03/31 03:23:55;;;;;;;5.27;2.07;;;;;;;11.29;69.78;101102.78;5086732;28;20212;-69
2021/03/31 03:26:24;;;;;;;9.27;2.03;;;;;;;11.64;69.25;101161.53;5088453;28;20211;-70
2021/03/31 03:28:52;;;;;;;3.80;1.57;;;;;;;11.51;69.48;101138.09;5084467;28;20273;-70
2021/03/31 03:31:21;;;;;;;3.90;1.17;;;;;;;11.63;69.40;101154.38;5089757;28;20651;-70
2021/03/31 03:33:49;;;;;;;9.73;1.90;;;;;;;11.65;69.82;101158.72;5087901;28;20207;-69
2021/03/31 03:36:16;;;;;;;4.07;2.03;;;;;;;11.63;69.75;101157.06;5086680;28;20674;-71
2021/03/31 03:38:43;;;;;;;10.10;2.20;;;;;;;11.57;69.54;101144.03;5089328;28;20627;-68
2021/03/31 03:41:13;;;;;;;3.27;2.63;;;;;;;11.64;70.11;101157.00;5084412;28;20713;-71
2021/03/31 03:43:42;;;;;;;7.10;1.50;;;;;;;11.50;69.89;101127.44;5087015;28;20735;-71
2021/03/31 03:46:11;;;;;;;4.97;1.33;;;;;;;11.65;69.90;101163.25;5089365;28;20197;-70
2021/03/31 03:48:40;;;;;;;5.60;1.63;;;;;;;11.65;69.73;101163.25;5088158;28;20250;-70
2021/03/31 03:51:09;;;;;;;1.47;1.20;;;;;;;11.62;69.39;101158.91;5091287;28;20200;-71
2021/03/31 03:53:37;;;;;;;3.53;1.27;;;;;;;11.58;69.90;101157.38;5084675;28;20252;-70
2021/03/31 03:56:10;;;;;;;2.53;1.07;;;;;;;11.54;69.68;101160.38;5091549;28;20944;-70
2021/03/31 03:58:38;;;;;;;1.13;1.03;;;;;;;11.42;69.83;101141.38;5086123;28;20225;-70
2021/03/31 04:01:06;;;;;;;2.90;1.37;;;;;;;11.52;69.38;101152.41;5087957;28;20195;-70
2021/03/31 04:03:33;;;;;;;3.87;1.20;;;;;;;11.44;70.18;101160.13;5086115;28;20659;-70
2021/03/31 04:06:01;;;;;;;4.30;1.20;;;;;;;11.15;70.14;101105.53;5087203;28;20229;-70
2021/03/31 04:08:29;;;;;;;1.70;1.00;;;;;;;11.42;70.05;101157.53;5090580;28;20744;-70
2021/03/31 04:10:57;;;;;;;2.57;1.17;;;;;;;11.42;70.25;101165.59;5086400;28;20889;-70
2021/03/31 04:13:27;;;;;;;3.00;1.30;;;;;;;11.43;70.29;101161.94;5088483;28;20667;-70
2021/03/31 04:15:59;;;;;;;6.17;1.50;;;;;;;11.34;70.54;101165.22;5091564;28;20200;-70
2021/03/31 04:18:29;;;;;;;3.83;1.03;;;;;;;11.42;70.19;101170.97;5091058;28;20582;-70
2021/03/31 04:20:58;;;;;;;1.23;1.10;;;;;;;11.41;70.18;101168.38;5089474;28;20209;-70
2021/03/31 04:23:27;;;;;;;3.40;1.20;;;;;;;11.45;69.64;101173.47;5088155;28;20197;-69
2021/03/31 04:25:56;;;;;;;2.00;1.03;;;;;;;11.43;69.59;101172.69;5088344;28;20254;-68
2021/03/31 04:28:25;;;;;;;3.20;1.50;;;;;;;11.39;69.82;101173.88;5084220;28;20194;-69
2021/03/31 04:30:53;;;;;;;3.37;1.07;;;;;;;11.41;69.89;101171.06;5083041;28;20208;-68
2021/03/31 04:33:22;;;;;;;2.70;1.10;;;;;;;11.38;69.86;101172.13;5085909;28;20572;-68
2021/03/31 04:35:51;;;;;;;2.17;1.10;;;;;;;11.28;70.89;101179.03;5073418;28;20205;-69
2021/03/31 04:38:19;;;;;;;2.43;1.30;;;;;;;11.30;70.63;101168.19;5081816;28;20243;-69
2021/03/31 04:40:55;;;;;;;2.83;1.20;;;;;;;11.33;70.17;101171.56;5081425;28;20208;-69
2021/03/31 04:43:23;;;;;;;2.17;1.30;;;;;;;11.36;70.43;101173.19;5086726;28;20227;-69
2021/03/31 04:45:50;;;;;;;1.23;1.10;;;;;;;11.32;70.73;101163.56;5076653;28;20729;-69
2021/03/31 04:48:17;;;;;;;4.33;1.10;;;;;;;11.33;70.66;101168.88;5082992;28;20193;-70
2021/03/31 04:50:45;;;;;;;2.23;1.13;;;;;;;11.34;70.59;101167.06;5083223;28;20255;-70
2021/03/31 04:53:12;;;;;;;1.43;1.10;;;;;;;11.37;70.35;101169.53;5080314;28;20266;-69
2021/03/31 04:55:39;;;;;;;1.47;1.00;;;;;;;11.43;70.02;101166.47;5076176;28;20206;-70
2021/03/31 04:58:08;;;;;;;1.33;1.10;;;;;;;11.47;70.19;101166.16;5082361;28;20989;-70
2021/03/31 05:00:35;;;;;;;1.73;1.07;;;;;;;11.44;70.24;101171.75;5082878;28;20279;-70
2021/03/31 05:03:03;;;;;;;5.07;0.87;;;;;;;11.45;69.85;101161.84;5076650;28;20201;-70
2021/03/31 05:05:30;;;;;;;1.50;1.10;;;;;;;11.19;69.98;101128.56;5079962;28;20793;-70
2021/03/31 05:07:57;;;;;;;1.23;1.13;;;;;;;11.32;69.90;101152.81;5079477;28;20647;-70
2021/03/31 05:10:25;;;;;;;1.23;1.00;;;;;;;11.50;69.75;101179.41;5076941;28;20652;-70
2021/03/31 05:12:53;;;;;;;1.13;0.83;;;;;;;11.51;69.80;101177.56;5088383;28;20200;-69
2021/03/31 05:15:21;;;;;;;2.93;1.10;;;;;;;11.48;69.93;101181.31;5089930;28;20202;-70
2021/03/31 05:17:48;;;;;;;1.60;1.30;;;;;;;11.45;69.34;101177.97;5076595;28;20214;-70
2021/03/31 05:20:16;;;;;;;1.33;0.80;;;;;;;11.52;69.67;101185.53;5082065;28;20227;-69
2021/03/31 05:22:44;;;;;;;2.93;1.33;;;;;;;11.54;69.84;101179.19;5076510;28;20189;-70
2021/03/31 05:25:12;;;;;;;3.77;1.10;;;;;;;11.52;69.80;101187.38;5075045;28;20291;-70
2021/03/31 05:27:40;;;;;;;1.23;1.13;;;;;;;11.54;69.53;101192.66;5079335;28;20197;-70
2021/03/31 05:30:08;;;;;;;4.70;1.20;;;;;;;11.46;69.51;101183.25;5081904;28;20730;-69
2021/03/31 05:32:37;;;;;;;1.10;1.00;;;;;;;11.57;69.61;101184.38;5071693;28;20667;-70
2021/03/31 05:35:10;;;;;;;1.03;0.93;;;;;;;11.47;70.55;101192.19;5073869;28;20188;-69
2021/03/31 05:37:37;;;;;;;1.77;1.10;;;;;;;11.53;69.66;101189.09;5075124;28;20260;-70
2021/03/31 05:40:06;;;;;;;1.93;1.10;;;;;;;11.60;69.59;101197.63;5079418;28;20215;-69
2021/03/31 05:42:35;;;;;;;1.00;0.97;;;;;;;11.57;69.64;101203.22;5081264;28;20270;-70
2021/03/31 05:45:06;;;;;;;2.93;1.07;;;;;;;11.61;69.57;101204.72;5078428;28;20203;-69
2021/03/31 05:47:35;;;;;;;3.80;0.90;;;;;;;11.61;69.80;101204.72;5080525;28;20221;-69
2021/03/31 05:50:05;;;;;;;1.50;1.20;;;;;;;11.68;69.04;101206.09;5081044;28;20283;-69
2021/03/31 05:52:32;;;;;;;1.53;1.00;;;;;;;11.60;69.02;101195.81;5086403;28;20192;-69
2021/03/31 05:55:01;;;;;;;1.93;0.93;;;;;;;11.64;69.40;101194.66;5087893;28;20211;-69
2021/03/31 05:57:32;;;;;;;3.73;1.40;;;;;;;11.55;69.51;101197.94;5086521;28;20218;-69
2021/03/31 06:00:00;;;;;;;188.73;123.83;;;;;;;11.54;69.26;101198.03;5086801;28;20225;-69
2021/03/31 06:02:39;;;;;;;10.73;7.50;;;;;;;11.60;69.45;101211.06;5080740;28;20599;-69
2021/03/31 06:05:10;;;;;;;2.60;2.27;;;;;;;11.57;70.13;101198.69;5085616;28;20263;-68
2021/03/31 06:07:41;;;;;;;5.80;1.50;;;;;;;11.38;69.97;101165.91;5084576;28;20292;-69
2021/03/31 06:10:14;;;;;;;3.70;1.70;;;;;;;11.58;70.33;101205.78;5087185;28;20225;-69
2021/03/31 06:12:44;;;;;;;2.20;1.40;;;;;;;11.59;70.03;101210.22;5086653;28;20211;-70
2021/03/31 06:15:17;;;;;;;2.80;1.40;;;;;;;11.67;69.72;101209.75;5086528;28;20196;-71
2021/03/31 06:17:46;;;;;;;2.37;2.17;;;;;;;11.70;69.73;101199.66;5085552;28;20216;-70
2021/03/31 06:20:43;;;;;;;5.93;4.33;;;;;;;11.79;69.46;101201.75;5088162;28;20279;-68
2021/03/31 06:23:17;;;;;;;2.30;2.10;;;;;;;11.86;68.93;101204.91;5086610;28;20205;-69
2021/03/31 06:25:48;;;;;;;2.57;1.30;;;;;;;11.80;68.50;101189.16;5084390;28;20668;-69
2021/03/31 06:28:33;;;;;;;2.43;1.47;;;;;;;11.89;69.11;101212.78;5084566;28;20223;-69
2021/03/31 06:31:21;;;;;;;1.87;1.40;;;;;;;11.95;68.79;101207.00;5083698;28;20199;-69
2021/03/31 06:33:50;;;;;;;11.17;8.17;;;;;;;12.00;68.55;101212.09;5085897;28;20271;-69
2021/03/31 06:36:32;;;;;;;2.40;1.90;;;;;;;11.88;68.48;101196.72;5085160;28;20228;-69
2021/03/31 06:38:59;;;;;;;15.93;11.53;;;;;;;11.86;68.09;101175.28;5085926;28;20556;-68
2021/03/31 06:41:28;;;;;;;1.53;1.40;;;;;;;12.06;68.31;101200.91;5087132;28;20204;-69
2021/03/31 06:44:07;;;;;;;4.13;1.30;;;;;;;12.14;67.89;101201.25;5087925;28;20278;-69
2021/03/31 06:46:44;;;;;;;2.20;1.03;;;;;;;12.03;69.13;101206.50;5083142;28;20711;-69
2021/03/31 06:49:11;;;;;;;1.07;0.93;;;;;;;12.12;68.51;101209.44;5083443;28;20214;-69
2021/03/31 06:51:39;;;;;;;5.13;1.10;;;;;;;11.83;67.67;101175.50;5087137;28;20196;-69
2021/03/31 06:54:14;;;;;;;1.17;1.07;;;;;;;12.09;68.53;101230.31;5092334;28;20198;-69
2021/03/31 06:56:44;;;;;;;4.97;1.20;;;;;;;11.88;68.05;101194.91;5089183;28;20200;-69
2021/03/31 06:59:12;;;;;;;2.37;1.20;;;;;;;12.09;67.99;101222.22;5089290;28;20201;-69
2021/03/31 07:01:40;;;;;;;2.13;1.10;;;;;;;11.95;68.78;101220.47;5091946;28;20575;-69
2021/03/31 07:04:09;;;;;;;1.40;1.23;;;;;;;11.65;68.36;101160.56;5090887;28;20211;-69
2021/03/31 07:06:36;;;;;;;2.33;1.10;;;;;;;11.98;68.51;101214.88;5093848;28;20683;-69
2021/03/31 07:09:18;;;;;;;3.70;1.00;;;;;;;12.00;68.71;101228.22;5092675;28;20276;-69
2021/03/31 07:11:45;;;;;;;2.43;1.20;;;;;;;11.97;68.93;101233.81;5091450;28;20265;-69
2021/03/31 07:14:12;;;;;;;1.17;1.07;;;;;;;11.99;68.71;101229.19;5088199;28;20221;-70
2021/03/31 07:16:41;;;;;;;2.97;1.07;;;;;;;11.75;68.58;101191.25;5091002;28;20205;-70
2021/03/31 07:19:08;;;;;;;2.70;1.00;;;;;;;12.09;68.31;101222.22;5091129;28;20632;-70
2021/03/31 07:21:56;;;;;;;1.00;1.00;;;;;;;11.98;67.75;101193.34;5089560;28;20189;-70
2021/03/31 07:24:24;;;;;;;1.73;1.30;;;;;;;12.10;68.05;101229.34;5089211;28;20196;-70
2021/03/31 07:26:51;;;;;;;2.10;1.10;;;;;;;12.07;68.09;101240.31;5092001;28;20257;-71
2021/03/31 07:29:19;;;;;;;1.90;1.10;;;;;;;12.11;68.10;101231.94;5087443;28;20222;-70
2021/03/31 07:31:47;;;;;;;2.03;1.10;;;;;;;11.95;68.49;101198.06;5092934;28;20615;-71
2021/03/31 07:34:20;;;;;;;2.53;1.00;;;;;;;12.21;68.36;101239.38;5092674;28;20657;-70
2021/03/31 07:36:49;;;;;;;2.10;1.03;;;;;;;12.19;68.20;101226.03;5092294;28;20700;-70
2021/03/31 07:39:18;;;;;;;1.33;1.20;;;;;;;12.26;67.32;101229.19;5092847;28;20715;-70
2021/03/31 07:41:47;;;;;;;4.20;1.10;;;;;;;12.28;66.98;101221.88;5092406;28;20278;-71
2021/03/31 07:44:20;;;;;;;0.90;0.90;;;;;;;12.32;66.82;101218.00;5092722;28;20286;-69
2021/03/31 07:46:49;;;;;;;4.90;1.23;;;;;;;12.26;66.87;101207.66;5092588;28;20222;-70
2021/03/31 07:49:17;;;;;;;4.37;1.10;;;;;;;12.05;67.02;101200.03;5092273;28;20201;-69
2021/03/31 07:51:56;;;;;;;3.37;1.10;;;;;;;12.21;67.63;101229.47;5088875;28;20513;-69
2021/03/31 07:54:23;;;;;;;1.87;1.00;;;;;;;12.33;67.10;101225.13;5092575;28;20629;-69
2021/03/31 07:56:51;;;;;;;3.07;1.50;;;;;;;12.33;67.81;101235.91;5088884;28;20370;-69
2021/03/31 07:59:19;;;;;;;3.73;1.10;;;;;;;12.28;66.82;101219.19;5090535;28;20203;-69
2021/03/31 08:01:49;;;;;;;1.90;1.03;;;;;;;12.42;66.53;101237.97;5092100;28;20280;-69
2021/03/31 08:04:17;;;;;;;1.53;1.00;;;;;;;12.36;66.69;101241.94;5090359;28;20218;-70
2021/03/31 08:06:46;;;;;;;4.20;1.20;;;;;;;11.78;67.54;101164.19;5092738;28;20333;-70
2021/03/31 08:09:21;;;;;;;1.37;1.20;;;;;;;12.37;67.59;101237.41;5091426;28;20873;-69
2021/03/31 08:11:57;;;;;;;1.80;1.00;;;;;;;12.47;66.27;101243.91;5091319;28;20238;-70
2021/03/31 08:14:42;;;;;;;3.43;1.00;;;;;;;12.17;66.50;101186.72;5091852;28;20202;-69
2021/03/31 08:17:28;;;;;;;1.20;1.10;;;;;;;12.44;67.35;101250.34;5088353;28;20800;-69
2021/03/31 08:19:57;;;;;;;2.93;1.33;;;;;;;12.34;66.89;101219.63;5090630;28;20552;-69
2021/03/31 08:22:37;;;;;;;1.20;1.00;;;;;;;12.52;67.50;101240.88;5090190;28;20223;-69
2021/03/31 08:25:23;;;;;;;109.93;81.40;;;;;;;12.53;66.88;101230.00;5091574;28;20186;-70
2021/03/31 08:28:01;;;;;;;1999.90;874.47;;;;;;;12.57;66.82;101228.84;5088960;28;20653;-69
2021/03/31 08:30:29;;;;;;;104.43;53.10;;;;;;;12.50;67.04;101195.19;5091281;28;20292;-69
2021/03/31 08:32:57;;;;;;;11.87;6.17;;;;;;;12.75;66.02;101226.72;5090589;28;20206;-70
2021/03/31 08:35:26;;;;;;;13.37;6.43;;;;;;;12.82;65.65;101225.31;5092242;28;20197;-68
2021/03/31 08:37:53;;;;;;;5.80;2.30;;;;;;;12.82;66.75;101216.34;5091014;28;20231;-68
2021/03/31 08:40:21;;;;;;;2.27;1.70;;;;;;;12.86;66.77;101217.91;5091229;28;20295;-68
2021/03/31 08:43:05;;;;;;;9.67;2.63;;;;;;;12.96;66.77;101213.56;5090923;28;20286;-68
2021/03/31 08:45:38;;;;;;;3.13;1.70;;;;;;;12.84;66.54;101184.75;5091476;28;20210;-68
2021/03/31 08:48:07;;;;;;;1.30;1.20;;;;;;;13.09;66.16;101214.44;5086789;28;20678;-68
2021/03/31 08:50:40;;;;;;;6.07;4.93;;;;;;;13.20;65.51;101216.41;5091300;28;20267;-68
2021/03/31 08:53:10;;;;;;;2.67;2.10;;;;;;;13.26;64.78;101211.44;5091142;28;20697;-68
2021/03/31 08:55:41;;;;;;;4.20;1.37;;;;;;;13.39;64.69;101218.63;5088810;28;20209;-68
2021/03/31 08:58:11;;;;;;;1.37;1.27;;;;;;;13.34;65.21;101218.97;5089316;28;20745;-68
2021/03/31 09:00:43;;;;;;;6.10;4.37;;;;;;;13.38;65.29;101227.72;5087493;28;20200;-68
2021/03/31 09:03:10;;;;;;;6.07;2.10;;;;;;;13.44;65.59;101227.25;5087120;28;20273;-68
2021/03/31 09:05:38;;;;;;;3.40;1.23;;;;;;;13.48;65.12;101229.66;5090781;28;20222;-68
2021/03/31 09:08:07;;;;;;;1.70;1.23;;;;;;;13.56;64.64;101223.69;5091257;28;20202;-68
2021/03/31 09:10:54;;;;;;;1.20;1.10;;;;;;;13.64;64.76;101221.28;5087060;28;20221;-69
2021/03/31 09:13:30;;;;;;;1.20;1.00;;;;;;;13.65;64.33;101212.22;5089342;28;20204;-70
2021/03/31 09:15:58;;;;;;;3.57;1.30;;;;;;;13.68;63.73;101209.28;5089451;28;20284;-69
2021/03/31 09:18:26;;;;;;;1.33;1.00;;;;;;;13.43;64.12;101179.66;5090578;28;20555;-69
2021/03/31 09:20:54;;;;;;;1.93;1.20;;;;;;;13.65;64.45;101210.38;5088287;28;20203;-69
2021/03/31 09:23:22;;;;;;;3.37;1.13;;;;;;;13.67;63.91;101227.31;5090056;28;20207;-69
2021/03/31 09:26:01;;;;;;;2.90;1.00;;;;;;;13.60;64.04;101231.44;5085692;28;20696;-70
2021/03/31 09:28:30;;;;;;;2.50;0.90;;;;;;;13.66;63.44;101222.03;5086920;28;20217;-69
2021/03/31 09:31:06;;;;;;;1.23;1.10;;;;;;;13.62;63.26;101212.44;5089046;28;20210;-69
2021/03/31 09:33:40;;;;;;;1.27;1.17;;;;;;;13.65;63.18;101228.41;5086110;28;20192;-70
2021/03/31 09:36:16;;;;;;;1.00;1.00;;;;;;;13.31;63.52;101176.91;5090230;28;20208;-69
2021/03/31 09:38:54;;;;;;;4.60;0.97;;;;;;;13.60;64.31;101215.25;5089257;28;20213;-70
2021/03/31 09:41:23;;;;;;;4.47;1.40;;;;;;;13.62;64.78;101210.63;5086735;28;20566;-70
2021/03/31 09:43:51;;;;;;;1.17;0.90;;;;;;;13.68;64.62;101206.59;5090385;28;20620;-69
2021/03/31 09:46:23;;;;;;;2.83;0.93;;;;;;;13.71;64.46;101219.88;5087717;28;20206;-69
2021/03/31 09:48:51;;;;;;;1.30;1.20;;;;;;;13.77;64.63;101211.31;5090372;28;20581;-69
2021/03/31 09:51:19;;;;;;;1.90;1.00;;;;;;;13.83;64.30;101223.53;5088476;28;20593;-68
2021/03/31 09:53:48;;;;;;;2.00;1.20;;;;;;;13.54;64.21;101171.69;5089500;28;20260;-68
2021/03/31 09:56:17;;;;;;;2.20;1.20;;;;;;;13.52;63.92;101152.03;5087144;28;20666;-68
2021/03/31 09:58:48;;;;;;;1.67;1.13;;;;;;;13.74;63.80;101187.25;5087462;28;20216;-68
2021/03/31 10:01:17;;;;;;;1.10;1.00;;;;;;;13.95;63.33;101207.25;5089868;28;20337;-68
2021/03/31 10:03:46;;;;;;;3.10;1.13;;;;;;;14.00;63.22;101206.91;5085611;28;20518;-68
2021/03/31 10:06:33;;;;;;;3.03;0.87;;;;;;;14.04;63.46;101200.31;5086308;28;20227;-68
2021/03/31 10:09:03;;;;;;;1.50;1.00;;;;;;;13.90;63.14;101177.03;5089342;28;20199;-68
2021/03/31 10:11:35;;;;;;;1.57;1.00;;;;;;;13.74;62.70;101116.19;5090559;28;20628;-68
2021/03/31 10:14:04;;;;;;;2.73;1.37;;;;;;;14.30;62.71;101203.75;5088084;28;20204;-68
2021/03/31 10:16:38;;;;;;;1.13;1.03;;;;;;;14.26;62.26;101170.69;5088167;28;20207;-68
2021/03/31 10:19:08;;;;;;;1.27;1.10;;;;;;;14.48;61.98;101201.53;5089410;28;20229;-68
2021/03/31 10:21:37;;;;;;;1.73;0.90;;;;;;;14.50;61.58;101205.81;5089799;28;20192;-68
2021/03/31 10:24:07;;;;;;;3.33;1.20;;;;;;;14.52;61.64;101198.47;5088311;28;20605;-68
2021/03/31 10:26:48;;;;;;;2.67;0.97;;;;;;;14.53;62.13;101205.59;5087951;28;20258;-68
2021/03/31 10:29:36;;;;;;;1.70;1.00;;;;;;;14.49;62.29;101206.81;5087211;28;20209;-69
2021/03/31 10:32:16;;;;;;;1.20;1.10;;;;;;;14.02;61.73;101117.69;5083719;28;20220;-69
2021/03/31 10:34:45;;;;;;;1.90;1.10;;;;;;;14.55;61.25;101209.03;5075658;28;20197;-69
2021/03/31 10:37:18;;;;;;;2.53;1.23;;;;;;;14.46;61.58;101207.03;5080984;28;20192;-70
2021/03/31 10:51:31;;;;;;;1.97;1.37;;;;;;;13.90;62.58;101212.16;5065741;28;20309;-69
2021/03/31 10:54:01;;;;;;;2.70;1.60;;;;;;;13.92;62.76;101212.03;5079406;28;20229;-70
2021/03/31 10:56:31;;;;;;;1.97;1.27;;;;;;;13.76;63.58;101198.78;5080338;28;20184;-69
2021/03/31 10:58:58;;;;;;;4.43;1.13;;;;;;;13.85;62.79;101206.22;5081150;28;20306;-69
2021/03/31 11:01:25;;;;;;;1.50;1.20;;;;;;;13.80;63.43;101208.41;5083029;28;20567;-71
2021/03/31 11:03:53;;;;;;;4.03;1.63;;;;;;;13.76;63.66;101214.13;5083160;28;20284;-69
2021/03/31 11:06:21;;;;;;;3.77;1.60;;;;;;;13.76;63.32;101211.41;5085709;28;20233;-69
2021/03/31 11:08:50;;;;;;;4.37;1.60;;;;;;;13.68;63.65;101206.59;5087083;28;20650;-69
2021/03/31 11:11:17;;;;;;;2.53;1.53;;;;;;;13.61;64.11;101208.03;5084231;28;20223;-69
2021/03/31 11:13:45;;;;;;;2.60;1.97;;;;;;;13.48;64.17;101181.09;5084630;28;20199;-70
2021/03/31 11:16:14;;;;;;;5.83;2.60;;;;;;;13.69;64.25;101208.31;5085628;28;20220;-70
2021/03/31 11:18:50;;;;;;;3.47;2.80;;;;;;;13.69;64.44;101208.31;5079470;28;20223;-68
2021/03/31 11:26:54;;;;;;;4.30;2.80;;;;;;;13.72;63.95;101213.50;5087122;28;20699;-70
2021/03/31 11:29:22;;;;;;;3.83;2.80;;;;;;;13.66;64.38;101208.53;5079569;28;21720;-69
2021/03/31 11:31:49;;;;;;;2.70;2.37;;;;;;;13.70;64.48;101214.56;5085823;28;20214;-70
2021/03/31 11:34:16;;;;;;;5.10;3.50;;;;;;;13.74;64.47;101222.34;5085983;28;20284;-69
2021/03/31 11:36:44;;;;;;;14.37;4.40;;;;;;;13.72;63.92;101218.88;5083683;28;20220;-70
2021/03/31 11:39:13;;;;;;;6.30;3.40;;;;;;;13.64;63.95;101215.91;5086815;28;20238;-70
2021/03/31 11:41:41;;;;;;;5.67;3.30;;;;;;;13.60;64.31;101211.69;5088271;28;20203;-70
2021/03/31 11:44:08;;;;;;;7.73;2.97;;;;;;;13.58;64.11;101216.34;5088926;28;20296;-70
2021/03/31 11:46:35;;;;;;;4.50;2.47;;;;;;;13.51;64.86;101209.69;5088056;28;20224;-69
2021/03/31 11:49:03;;;;;;;3.67;2.20;;;;;;;13.46;64.96;101209.97;5087465;28;20723;-70
2021/03/31 11:51:30;;;;;;;7.73;2.57;;;;;;;13.49;64.84;101200.84;5088652;28;20560;-70
2021/03/31 11:53:58;;;;;;;3.20;2.50;;;;;;;13.51;64.35;101217.78;5090335;28;20736;-70
2021/03/31 11:56:25;;;;;;;4.37;2.50;;;;;;;13.36;64.76;101211.63;5084815;28;20658;-69